Startpagina
METAR-TAF:

METAR-TAF

Vliegvelden :

Luchthaven Ålesund. Vigra

Ålesund, Noorwegen

breedte: 62-34N, lengte: 006-07E, hoogte: 2 m

Actueel weer

Dit bericht is 18 minuten geleden gemaakt, om 01:50 UTC
Wind 21 kt uit het westzuidwesten
Temperatuur 5°C
Vochtigheid 75%
Druk 1004 hPa
Zicht 10 km of meer

METAR: ENAL 240150Z AUTO 25021KT 9999 FEW030/// 05/01 Q1004

Tijdstip: 03:08 (02:08 UTC)

Verwachting

Dit bericht is 9 uur en het 8 minuten geleden gemaakt, om 17:00 UTC
Verwachting geldig van 23 om 18 UTC tot 23 om 23 UTC
Wind 22 kt uit het westzuidwesten
Zicht 10 km of meer
Weinig wolken op 1500 ft
Gebroken wolken op 3000 ft
lichte regenbuien
Tijdelijke
van 23 om 18 UTC tot 23 om 23 UTC
Wind 28 kt uit het westzuidwesten met uitschieters tot 40 kt
Zicht: 4000 m
Gebroken wolken op 1200 ft, Cumulonimbus.
regenbuien

TAF: ENAL 231700Z 2318/2323 24022KT 9999 -SHRA FEW015 BKN030 TEMPO 2318/2323 25028G40KT 4000 SHRA BKN012CB

Waarnemingen en weersverwachtingen van meer dan 4000 vliegvelden (METAR en TAF).

De beschikbare stations zijn de gele en rode punten op de kaart.

Ga met uw muis naar het station om de naam te zien.

Klik dan om waarnemingen en weersverwachtingen te zien.

kaart wijzigen: klik op de groene knoppen met een zwart kruis om in te zoomen, op de groene knop met een streepje om uit te zoomen of op de groene pijlen voor aangrenzende kaarten.


METAR-TAF: